Time;durP1;ratioP1;P1;durP2;ratioP2;P2;SDS_P1;SDS_P2;PMS_P1;PMS_P2;Temp;Humidity;BMP_temperature;BMP_pressure;BME280_temperature;BME280_humidity;BME280_pressure;Samples;Min_cycle;Max_cycle;Signal;HPM_P1;HPM_P2
2022/06/24 00:03:46;;;;;;;;;;;;;;;;;;10431269;28;19925;-72
2022/06/24 00:08:48;;;;;;;;;;;;;;;;;;10415299;28;19925;-71
2022/06/24 00:13:51;;;;;;;;;;;;;;;;;;10415374;28;19929;-71
2022/06/24 00:18:53;;;;;;;;;;;;;;;;;;10441146;28;20346;-72
2022/06/24 00:23:55;;;;;;;;;;;;;;;;;;10429628;28;19925;-71
2022/06/24 00:28:57;;;;;;;;;;;;;;;;;;10414109;28;19925;-71
2022/06/24 00:33:59;;;;;;;;;;;;;;;;;;10413800;28;19925;-71
2022/06/24 00:39:01;;;;;;;;;;;;;;;;;;10420387;28;19935;-70
2022/06/24 00:44:03;;;;;;;;;;;;;;;;;;10422477;28;19932;-71
2022/06/24 00:49:05;;;;;;;;;;;;;;;;;;10421780;28;19926;-69
2022/06/24 00:54:07;;;;;;;;;;;;;;;;;;10420977;28;19925;-70
2022/06/24 00:59:09;;;;;;;;;;;;;;;;;;10450525;28;19932;-68
2022/06/24 01:04:11;;;;;;;;;;;;;;;;;;10460826;28;19928;-69
2022/06/24 01:09:16;;;;;;;;;;;;;;;;;;10462281;28;19931;-71
2022/06/24 01:14:18;;;;;;;;;;;;;;;;;;10462203;28;19931;-72
2022/06/24 01:19:20;;;;;;;;;;;;;;;;;;10459947;28;20294;-70
2022/06/24 01:24:22;;;;;;;;;;;;;;;;;;10453695;28;19925;-71
2022/06/24 01:29:24;;;;;;;;;;;;;;;;;;10420724;28;19932;-71
2022/06/24 01:34:26;;;;;;;;;;;;;;;;;;10419385;28;20383;-71
2022/06/24 01:39:29;;;;;;;;;;;;;;;;;;10419832;28;19931;-71
2022/06/24 01:44:31;;;;;;;;;;;;;;;;;;10418813;28;20395;-71
2022/06/24 01:49:33;;;;;;;;;;;;;;;;;;10418495;28;19933;-71
2022/06/24 01:54:35;;;;;;;;;;;;;;;;;;10443006;28;19924;-71
2022/06/24 01:59:37;;;;;;;;;;;;;;;;;;10459646;28;20279;-71
2022/06/24 02:04:39;;;;;;;;;;;;;;;;;;10435025;28;20383;-70
2022/06/24 02:15:02;;;;;;;;;;;;;;;;;;10458878;28;20373;-69
2022/06/24 02:20:04;;;;;;;;;;;;;;;;;;10447196;28;19932;-69
2022/06/24 02:25:06;;;;;;;;;;;;;;;;;;10453638;28;19924;-69
2022/06/24 02:30:08;;;;;;;;;;;;;;;;;;10459166;28;19932;-68
2022/06/24 02:35:10;;;;;;;;;;;;;;;;;;10458872;28;19931;-64
2022/06/24 02:45:33;;;;;;;;;;;;;;;;;;10456043;28;20372;-65
2022/06/24 02:50:35;;;;;;;;;;;;;;;;;;10425633;28;19932;-64
2022/06/24 02:55:37;;;;;;;;;;;;;;;;;;10416905;28;20012;-65
2022/06/24 03:00:41;;;;;;;;;;;;;;;;;;10416664;28;19932;-67
2022/06/24 03:05:43;;;;;;;;;;;;;;;;;;10456581;28;19924;-67
2022/06/24 03:10:45;;;;;;;;;;;;;;;;;;10456577;28;19925;-69
2022/06/24 03:15:48;;;;;;;;;;;;;;;;;;10456609;28;20276;-68
2022/06/24 03:20:50;;;;;;;;;;;;;;;;;;10422437;28;19961;-69
2022/06/24 03:25:52;;;;;;;;;;;;;;;;;;10416234;28;20265;-70
2022/06/24 03:30:54;;;;;;;;;;;;;;;;;;10416028;28;19925;-70
2022/06/24 03:35:57;;;;;;;;;;;;;;;;;;10415269;28;20387;-70
2022/06/24 03:40:59;;;;;;;;;;;;;;;;;;10416290;28;19925;-70
2022/06/24 03:46:01;;;;;;;;;;;;;;;;;;10445124;28;19929;-70
2022/06/24 03:51:03;;;;;;;;;;;;;;;;;;10415766;28;19925;-71
2022/06/24 03:56:06;;;;;;;;;;;;;;;;;;10415484;28;19929;-69
2022/06/24 04:01:08;;;;;;;;;;;;;;;;;;10418683;28;19932;-69
2022/06/24 04:06:10;;;;;;;;;;;;;;;;;;10456565;28;19925;-69
2022/06/24 04:11:12;;;;;;;;;;;;;;;;;;10431058;28;19940;-69
2022/06/24 04:16:14;;;;;;;;;;;;;;;;;;10422570;28;19932;-70
2022/06/24 04:21:16;;;;;;;;;;;;;;;;;;10423369;28;20035;-70
2022/06/24 04:26:18;;;;;;;;;;;;;;;;;;10422110;28;20360;-70
2022/06/24 04:31:20;;;;;;;;;;;;;;;;;;10421848;28;20295;-70
2022/06/24 04:36:22;;;;;;;;;;;;;;;;;;10428493;28;19932;-70
2022/06/24 04:41:24;;;;;;;;;;;;;;;;;;10461739;28;19929;-68
2022/06/24 04:46:26;;;;;;;;;;;;;;;;;;10462503;28;19928;-68
2022/06/24 04:51:29;;;;;;;;;;;;;;;;;;10462424;28;20438;-68
2022/06/24 04:56:31;;;;;;;;;;;;;;;;;;10461520;28;20376;-69
2022/06/24 05:01:35;;;;;;;;;;;;;;;;;;10460244;28;19978;-70
2022/06/24 05:06:37;;;;;;;;;;;;;;;;;;10462412;28;19925;-70
2022/06/24 05:11:39;;;;;;;;;;;;;;;;;;10439012;28;19925;-70
2022/06/24 05:16:41;;;;;;;;;;;;;;;;;;10429579;28;19936;-69
2022/06/24 05:21:44;;;;;;;;;;;;;;;;;;10420011;28;19932;-69
2022/06/24 05:26:46;;;;;;;;;;;;;;;;;;10419824;28;19925;-69
2022/06/24 05:31:48;;;;;;;;;;;;;;;;;;10419621;28;20356;-69
2022/06/24 05:36:50;;;;;;;;;;;;;;;;;;10419931;28;19925;-68
2022/06/24 05:41:52;;;;;;;;;;;;;;;;;;10417871;28;19925;-69
2022/06/24 05:46:54;;;;;;;;;;;;;;;;;;10419602;28;19926;-69
2022/06/24 05:51:57;;;;;;;;;;;;;;;;;;10419464;28;19979;-68
2022/06/24 05:56:59;;;;;;;;;;;;;;;;;;10418525;28;20281;-68
2022/06/24 06:02:01;;;;;;;;;;;;;;;;;;10418396;28;20296;-69
2022/06/24 06:07:03;;;;;;;;;;;;;;;;;;10418852;28;19925;-69
2022/06/24 06:12:05;;;;;;;;;;;;;;;;;;10418676;28;19925;-69
2022/06/24 06:17:07;;;;;;;;;;;;;;;;;;10418372;28;19932;-69
2022/06/24 06:22:09;;;;;;;;;;;;;;;;;;10417596;28;19925;-69
2022/06/24 06:27:12;;;;;;;;;;;;;;;;;;10418046;28;19929;-70
2022/06/24 06:32:14;;;;;;;;;;;;;;;;;;10417862;28;19925;-70
2022/06/24 06:37:16;;;;;;;;;;;;;;;;;;10417120;28;20004;-70
2022/06/24 06:42:19;;;;;;;;;;;;;;;;;;10416669;28;20364;-69
2022/06/24 06:47:21;;;;;;;;;;;;;;;;;;10416714;28;20402;-70
2022/06/24 06:52:23;;;;;;;;;;;;;;;;;;10416462;28;20291;-70
2022/06/24 06:57:25;;;;;;;;;;;;;;;;;;10416287;28;19931;-70
2022/06/24 07:02:27;;;;;;;;;;;;;;;;;;10416828;28;19925;-71
2022/06/24 07:07:31;;;;;;;;;;;;;;;;;;10416690;28;19929;-71
2022/06/24 07:12:33;;;;;;;;;;;;;;;;;;10415916;28;20396;-70
2022/06/24 07:17:36;;;;;;;;;;;;;;;;;;10415716;28;20452;-70
2022/06/24 07:22:38;;;;;;;;;;;;;;;;;;10416286;28;19925;-69
2022/06/24 07:27:40;;;;;;;;;;;;;;;;;;10415509;28;19925;-69
2022/06/24 07:32:42;;;;;;;;;;;;;;;;;;10416093;28;19932;-69
2022/06/24 07:37:44;;;;;;;;;;;;;;;;;;10415890;28;19933;-69
2022/06/24 07:42:46;;;;;;;;;;;;;;;;;;10415039;28;19925;-69
2022/06/24 07:47:48;;;;;;;;;;;;;;;;;;10419888;28;19931;-69
2022/06/24 07:52:50;;;;;;;;;;;;;;;;;;10423428;28;19925;-69
2022/06/24 07:57:53;;;;;;;;;;;;;;;;;;10423130;28;20365;-70
2022/06/24 08:02:55;;;;;;;;;;;;;;;;;;10423687;28;19925;-70
2022/06/24 08:07:57;;;;;;;;;;;;;;;;;;10423392;28;20380;-70
2022/06/24 08:12:59;;;;;;;;;;;;;;;;;;10423331;28;19925;-71
2022/06/24 08:18:01;;;;;;;;;;;;;;;;;;10423091;28;19933;-70
2022/06/24 08:23:03;;;;;;;;;;;;;;;;;;10422820;28;19929;-71
2022/06/24 08:28:05;;;;;;;;;;;;;;;;;;10422798;28;19932;-71
2022/06/24 08:33:07;;;;;;;;;;;;;;;;;;10421850;28;20377;-71
2022/06/24 08:38:09;;;;;;;;;;;;;;;;;;10422242;28;19933;-69
2022/06/24 08:43:12;;;;;;;;;;;;;;;;;;10421708;28;19929;-69
2022/06/24 08:48:14;;;;;;;;;;;;;;;;;;10421325;28;20372;-69
2022/06/24 08:53:17;;;;;;;;;;;;;;;;;;10421697;28;19925;-69
2022/06/24 08:58:19;;;;;;;;;;;;;;;;;;10421007;28;19940;-70
2022/06/24 09:03:21;;;;;;;;;;;;;;;;;;10421237;28;19936;-69
2022/06/24 09:08:23;;;;;;;;;;;;;;;;;;10420995;28;19925;-69
2022/06/24 09:13:25;;;;;;;;;;;;;;;;;;10420136;28;20323;-69
2022/06/24 09:18:27;;;;;;;;;;;;;;;;;;10419405;28;19925;-69
2022/06/24 09:23:29;;;;;;;;;;;;;;;;;;10419870;28;19925;-69
2022/06/24 09:28:31;;;;;;;;;;;;;;;;;;10419823;28;19929;-70
2022/06/24 09:33:34;;;;;;;;;;;;;;;;;;10418337;28;19925;-71
2022/06/24 09:38:36;;;;;;;;;;;;;;;;;;10419320;28;20404;-72
2022/06/24 09:43:38;;;;;;;;;;;;;;;;;;10418982;28;20444;-72
2022/06/24 09:48:40;;;;;;;;;;;;;;;;;;10419624;28;19925;-72
2022/06/24 09:53:42;;;;;;;;;;;;;;;;;;10419453;28;19929;-71
2022/06/24 10:00:40;;;;;;;;;;;;;;;;;;10419200;28;19940;-72
2022/06/24 10:04:06;;;;;;;;;;;;;;;;;;10418448;28;19947;-72
2022/06/24 10:09:08;;;;;;;;;;;;;;;;;;10418051;28;19928;-72
2022/06/24 10:14:12;;;;;;;;;;;;;;;;;;10418670;28;19929;-72
2022/06/24 10:19:14;;;;;;;;;;;;;;;;;;10418318;28;19971;-71
2022/06/24 10:24:21;;;;;;;;;;;;;;;;;;10418275;28;19929;-72
2022/06/24 10:29:23;;;;;;;;;;;;;;;;;;10418008;28;19939;-72
2022/06/24 10:34:25;;;;;;;;;;;;;;;;;;10417799;28;19925;-72
2022/06/24 10:39:27;;;;;;;;;;;;;;;;;;10417427;28;19925;-72
2022/06/24 10:44:30;;;;;;;;;;;;;;;;;;10416570;28;19932;-72
2022/06/24 10:49:32;;;;;;;;;;;;;;;;;;10416699;28;19979;-72
2022/06/24 10:54:34;;;;;;;;;;;;;;;;;;10416510;28;19925;-72
2022/06/24 10:59:36;;;;;;;;;;;;;;;;;;10424349;22;19925;-64
2022/06/24 11:04:39;;;;;;;;;;;;;;;;;;10416263;28;20291;-64
2022/06/24 11:09:41;;;;;;;;;;;;;;;;;;10416701;28;19979;-64
2022/06/24 11:14:43;;;;;;;;;;;;;;;;;;10415979;28;19929;-64
2022/06/24 11:19:45;;;;;;;;;;;;;;;;;;10415622;28;19925;-65
2022/06/24 11:24:48;;;;;;;;;;;;;;;;;;10416360;28;19925;-65
2022/06/24 11:29:50;;;;;;;;;;;;;;;;;;10416169;28;19925;-65
2022/06/24 11:34:52;;;;;;;;;;;;;;;;;;10416108;28;19932;-65
2022/06/24 11:39:54;;;;;;;;;;;;;;;;;;10415902;28;19925;-65
2022/06/24 11:44:56;;;;;;;;;;;;;;;;;;10415911;28;19964;-65
2022/06/24 11:49:58;;;;;;;;;;;;;;;;;;10415129;28;20384;-64
2022/06/24 11:55:00;;;;;;;;;;;;;;;;;;10415066;28;19925;-61
2022/06/24 12:00:02;;;;;;;;;;;;;;;;;;10414982;28;19925;-61
2022/06/24 12:05:05;;;;;;;;;;;;;;;;;;10415516;28;19932;-62
2022/06/24 12:10:08;;;;;;;;;;;;;;;;;;10414751;28;20288;-62
2022/06/24 12:15:10;;;;;;;;;;;;;;;;;;10414687;28;19948;-62
2022/06/24 12:20:12;;;;;;;;;;;;;;;;;;10415170;28;19979;-62
2022/06/24 12:25:14;;;;;;;;;;;;;;;;;;10415367;28;19925;-63
2022/06/24 12:30:16;;;;;;;;;;;;;;;;;;10414440;28;20031;-64
2022/06/24 12:35:18;;;;;;;;;;;;;;;;;;10420812;28;20379;-63
2022/06/24 12:40:20;;;;;;;;;;;;;;;;;;10422272;28;19943;-63
2022/06/24 12:45:22;;;;;;;;;;;;;;;;;;10422211;28;19925;-63
2022/06/24 12:50:37;;;;;;;;;;;;;;;;;;10421364;28;20280;-63
2022/06/24 12:55:40;;;;;;;;;;;;;;;;;;10421853;28;19932;-62
2022/06/24 13:00:42;;;;;;;;;;;;;;;;;;10420783;28;19925;-62
2022/06/24 13:05:44;;;;;;;;;;;;;;;;;;10420833;28;20348;-62
2022/06/24 13:10:46;;;;;;;;;;;;;;;;;;10421282;28;19925;-62
2022/06/24 13:15:49;;;;;;;;;;;;;;;;;;10420797;28;20395;-63
2022/06/24 13:20:51;;;;;;;;;;;;;;;;;;10420803;28;19925;-63
2022/06/24 13:25:53;;;;;;;;;;;;;;;;;;10420680;28;20000;-63
2022/06/24 13:30:55;;;;;;;;;;;;;;;;;;10419796;28;19925;-63
2022/06/24 13:35:57;;;;;;;;;;;;;;;;;;10420242;28;19929;-63
2022/06/24 13:40:59;;;;;;;;;;;;;;;;;;10420009;28;19925;-63
2022/06/24 13:46:01;;;;;;;;;;;;;;;;;;10418028;28;20403;-63
2022/06/24 13:51:03;;;;;;;;;;;;;;;;;;10418497;28;19929;-63
2022/06/24 13:56:05;;;;;;;;;;;;;;;;;;10418786;28;20356;-64
2022/06/24 14:01:08;;;;;;;;;;;;;;;;;;10418536;28;19933;-64
2022/06/24 14:06:10;;;;;;;;;;;;;;;;;;10419025;28;19963;-64
2022/06/24 14:11:12;;;;;;;;;;;;;;;;;;10418881;28;19925;-64
2022/06/24 14:16:14;;;;;;;;;;;;;;;;;;10417941;28;19936;-64
2022/06/24 14:21:36;;;;;;;;;;;;;;;;;;10417802;28;20450;-64
2022/06/24 14:26:38;;;;;;;;;;;;;;;;;;10418203;28;19932;-64
2022/06/24 14:31:40;;;;;;;;;;;;;;;;;;10418022;28;19932;-64
2022/06/24 14:36:42;;;;;;;;;;;;;;;;;;10417797;28;19925;-64
2022/06/24 14:41:44;;;;;;;;;;;;;;;;;;10417048;28;20287;-65
2022/06/24 14:46:46;;;;;;;;;;;;;;;;;;10416342;28;19925;-65
2022/06/24 14:51:51;;;;;;;;;;;;;;;;;;10417327;28;19929;-65
2022/06/24 14:56:53;;;;;;;;;;;;;;;;;;10416602;28;19925;-64
2022/06/24 15:01:55;;;;;;;;;;;;;;;;;;10417003;28;19926;-65
2022/06/24 15:07:00;;;;;;;;;;;;;;;;;;10416845;28;19925;-64
2022/06/24 15:12:02;;;;;;;;;;;;;;;;;;10416706;28;19925;-64
2022/06/24 15:17:04;;;;;;;;;;;;;;;;;;10416443;28;19936;-64
2022/06/24 15:22:06;;;;;;;;;;;;;;;;;;10415765;28;19925;-65
2022/06/24 15:27:08;;;;;;;;;;;;;;;;;;10415683;28;19931;-65
2022/06/24 15:32:10;;;;;;;;;;;;;;;;;;10416186;28;19925;-65
2022/06/24 15:37:13;;;;;;;;;;;;;;;;;;10415433;28;19925;-65
2022/06/24 15:42:15;;;;;;;;;;;;;;;;;;10415953;28;19929;-65
2022/06/24 15:47:17;;;;;;;;;;;;;;;;;;10415219;28;20376;-65
2022/06/24 15:52:19;;;;;;;;;;;;;;;;;;10415750;28;19925;-65
2022/06/24 15:57:21;;;;;;;;;;;;;;;;;;10415359;28;20004;-65
2022/06/24 16:02:23;;;;;;;;;;;;;;;;;;10414941;28;20426;-65
2022/06/24 16:07:25;;;;;;;;;;;;;;;;;;10417170;28;19929;-65
2022/06/24 16:12:31;;;;;;;;;;;;;;;;;;10422942;28;19925;-65
2022/06/24 16:17:33;;;;;;;;;;;;;;;;;;10422537;28;20377;-65
2022/06/24 16:22:35;;;;;;;;;;;;;;;;;;10423083;28;19979;-65
2022/06/24 16:32:58;;;;;;;;;;;;;;;;;;10423003;28;19925;-64
2022/06/24 16:38:00;;;;;;;;;;;;;;;;;;10422468;28;19925;-64
2022/06/24 16:43:17;;;;;;;;;;;;;;;;;;10422242;28;19932;-64
2022/06/24 16:48:20;;;;;;;;;;;;;;;;;;10421042;28;20458;-65
2022/06/24 16:53:22;;;;;;;;;;;;;;;;;;10422804;28;19932;-64
2022/06/24 16:58:24;;;;;;;;;;;;;;;;;;10420872;28;19951;-65
2022/06/24 17:03:28;;;;;;;;;;;;;;;;;;10420893;28;20296;-65
2022/06/24 17:08:30;;;;;;;;;;;;;;;;;;10422425;28;20015;-65
2022/06/24 17:13:32;;;;;;;;;;;;;;;;;;10421127;28;19925;-65
2022/06/24 17:18:34;;;;;;;;;;;;;;;;;;10420610;28;19925;-65
2022/06/24 17:23:36;;;;;;;;;;;;;;;;;;10421244;28;19931;-65
2022/06/24 17:28:39;;;;;;;;;;;;;;;;;;10421057;28;19925;-65
2022/06/24 17:33:46;;;;;;;;;;;;;;;;;;10420507;28;20020;-64
2022/06/24 17:38:49;;;;;;;;;;;;;;;;;;10421194;28;19925;-65
2022/06/24 17:43:51;;;;;;;;;;;;;;;;;;10449977;28;19925;-64
2022/06/24 17:48:53;;;;;;;;;;;;;;;;;;10459297;28;19925;-65
2022/06/24 17:53:55;;;;;;;;;;;;;;;;;;10460100;28;20379;-64
2022/06/24 17:58:57;;;;;;;;;;;;;;;;;;10460368;28;19932;-65
2022/06/24 18:03:59;;;;;;;;;;;;;;;;;;10458745;28;19931;-64
2022/06/24 18:09:01;;;;;;;;;;;;;;;;;;10459659;28;20283;-64
2022/06/24 18:14:03;;;;;;;;;;;;;;;;;;10457634;28;20257;-65
2022/06/24 18:19:05;;;;;;;;;;;;;;;;;;10459065;28;20402;-65
2022/06/24 18:24:07;;;;;;;;;;;;;;;;;;10457282;28;19946;-64
2022/06/24 18:29:10;;;;;;;;;;;;;;;;;;10458150;28;20389;-64
2022/06/24 18:34:12;;;;;;;;;;;;;;;;;;10459253;28;19925;-64
2022/06/24 18:39:14;;;;;;;;;;;;;;;;;;10457283;28;19925;-64
2022/06/24 18:44:16;;;;;;;;;;;;;;;;;;10419781;28;20372;-65
2022/06/24 18:49:18;;;;;;;;;;;;;;;;;;10417301;28;19925;-64
2022/06/24 18:54:21;;;;;;;;;;;;;;;;;;10417770;28;19952;-63
2022/06/24 18:59:23;;;;;;;;;;;;;;;;;;10416270;28;20376;-64
2022/06/24 19:04:25;;;;;;;;;;;;;;;;;;10418018;28;19938;-63
2022/06/24 19:09:27;;;;;;;;;;;;;;;;;;10416768;28;19933;-64
2022/06/24 19:14:29;;;;;;;;;;;;;;;;;;10416658;28;19925;-63
2022/06/24 19:19:31;;;;;;;;;;;;;;;;;;10453610;28;19932;-64
2022/06/24 19:24:33;;;;;;;;;;;;;;;;;;10455580;28;19924;-64
2022/06/24 19:29:35;;;;;;;;;;;;;;;;;;10457159;28;19929;-63
2022/06/24 19:34:41;;;;;;;;;;;;;;;;;;10456729;28;20402;-63
2022/06/24 19:39:43;;;;;;;;;;;;;;;;;;10456813;28;19932;-63
2022/06/24 19:44:45;;;;;;;;;;;;;;;;;;10463089;28;19928;-64
2022/06/24 19:49:47;;;;;;;;;;;;;;;;;;10452693;28;19925;-64
2022/06/24 19:54:49;;;;;;;;;;;;;;;;;;10424232;28;19925;-64
2022/06/24 19:59:52;;;;;;;;;;;;;;;;;;10423144;28;19925;-64
2022/06/24 20:10:15;;;;;;;;;;;;;;;;;;10397866;28;19993;-63
2022/06/24 20:15:17;;;;;;;;;;;;;;;;;;10402495;28;19925;-64
2022/06/24 20:20:19;;;;;;;;;;;;;;;;;;10414720;28;20383;-64
2022/06/24 20:25:45;;;;;;;;;;;;;;;;;;10440939;28;19933;-64
2022/06/24 20:30:47;;;;;;;;;;;;;;;;;;10464118;28;19924;-64
2022/06/24 20:35:49;;;;;;;;;;;;;;;;;;10463339;28;19925;-64
2022/06/24 20:40:51;;;;;;;;;;;;;;;;;;10459765;28;20395;-64
2022/06/24 20:45:56;;;;;;;;;;;;;;;;;;10463279;28;19925;-64
2022/06/24 20:51:02;;;;;;;;;;;;;;;;;;10461139;28;19947;-64
2022/06/24 20:56:05;;;;;;;;;;;;;;;;;;10462525;28;19972;-64
2022/06/24 21:01:07;;;;;;;;;;;;;;;;;;10454701;28;19932;-63
2022/06/24 21:06:09;;;;;;;;;;;;;;;;;;10449454;28;19983;-63
2022/06/24 21:11:11;;;;;;;;;;;;;;;;;;10459605;28;19925;-64
2022/06/24 21:16:13;;;;;;;;;;;;;;;;;;10461742;28;20293;-64
2022/06/24 21:21:15;;;;;;;;;;;;;;;;;;10443083;28;19929;-63
2022/06/24 21:26:17;;;;;;;;;;;;;;;;;;10420072;28;20395;-64
2022/06/24 21:31:19;;;;;;;;;;;;;;;;;;10420547;28;19925;-64
2022/06/24 21:36:21;;;;;;;;;;;;;;;;;;10418581;28;19925;-64
2022/06/24 21:41:23;;;;;;;;;;;;;;;;;;10420356;28;20280;-63
2022/06/24 21:46:25;;;;;;;;;;;;;;;;;;10419497;28;19936;-63
2022/06/24 21:51:28;;;;;;;;;;;;;;;;;;10440363;28;19979;-63
2022/06/24 21:56:30;;;;;;;;;;;;;;;;;;10461299;28;19931;-63
2022/06/24 22:01:34;;;;;;;;;;;;;;;;;;10457664;28;19925;-64
2022/06/24 22:06:37;;;;;;;;;;;;;;;;;;10459279;28;19964;-64
2022/06/24 22:11:39;;;;;;;;;;;;;;;;;;10459469;28;20283;-64
2022/06/24 22:16:41;;;;;;;;;;;;;;;;;;10443090;28;19932;-63
2022/06/24 22:21:49;;;;;;;;;;;;;;;;;;10419227;28;20381;-64
2022/06/24 22:26:52;;;;;;;;;;;;;;;;;;10417713;28;19932;-63
2022/06/24 22:31:54;;;;;;;;;;;;;;;;;;10418131;28;19932;-63
2022/06/24 22:36:56;;;;;;;;;;;;;;;;;;10417623;28;19929;-63
2022/06/24 22:41:58;;;;;;;;;;;;;;;;;;10418075;28;19925;-64
2022/06/24 22:47:00;;;;;;;;;;;;;;;;;;10417158;28;19932;-63
2022/06/24 22:52:02;;;;;;;;;;;;;;;;;;10417414;28;19926;-63
2022/06/24 22:57:04;;;;;;;;;;;;;;;;;;10416996;28;19925;-63
2022/06/24 23:02:06;;;;;;;;;;;;;;;;;;10417479;28;20380;-63
2022/06/24 23:07:08;;;;;;;;;;;;;;;;;;10416876;28;19956;-63
2022/06/24 23:12:10;;;;;;;;;;;;;;;;;;10457273;22;20214;-61
2022/06/24 23:17:12;;;;;;;;;;;;;;;;;;10415807;28;19925;-61
2022/06/24 23:22:15;;;;;;;;;;;;;;;;;;10416965;28;20392;-61
2022/06/24 23:27:17;;;;;;;;;;;;;;;;;;10416304;28;19925;-61
2022/06/24 23:32:19;;;;;;;;;;;;;;;;;;10415902;28;19925;-61
2022/06/24 23:37:21;;;;;;;;;;;;;;;;;;10415426;28;19925;-61
2022/06/24 23:42:23;;;;;;;;;;;;;;;;;;10445615;28;19947;-60
2022/06/24 23:47:25;;;;;;;;;;;;;;;;;;10457023;28;19928;-60
2022/06/24 23:52:27;;;;;;;;;;;;;;;;;;10456933;28;19925;-61
2022/06/24 23:57:29;;;;;;;;;;;;;;;;;;10433329;28;19925;-61
